sensor_id;sensor_type;location;lat;lon;timestamp;pressure;altitude;pressure_sealevel;temperature;humidity
56330;BME280;42236;48.058;10.632;2023-04-24T00:01:58;93839.50;;;9.37;95.99
56330;BME280;42236;48.058;10.632;2023-04-24T00:04:43;93845.59;;;9.34;96.31
56330;BME280;42236;48.058;10.632;2023-04-24T00:07:31;93843.94;;;9.29;96.14
56330;BME280;42236;48.058;10.632;2023-04-24T00:10:16;93840.38;;;9.25;96.12
56330;BME280;42236;48.058;10.632;2023-04-24T00:13:02;93833.72;;;9.19;96.24
56330;BME280;42236;48.058;10.632;2023-04-24T00:15:48;93834.06;;;9.17;96.11
56330;BME280;42236;48.058;10.632;2023-04-24T00:18:33;93833.31;;;9.17;96.25
56330;BME280;42236;48.058;10.632;2023-04-24T00:21:19;93834.00;;;9.14;96.00
56330;BME280;42236;48.058;10.632;2023-04-24T00:24:05;93825.50;;;9.12;96.07
56330;BME280;42236;48.058;10.632;2023-04-24T00:26:51;93835.50;;;9.11;96.12
56330;BME280;42236;48.058;10.632;2023-04-24T00:29:37;93823.09;;;9.07;96.17
56330;BME280;42236;48.058;10.632;2023-04-24T00:32:22;93812.31;;;9.07;95.94
56330;BME280;42236;48.058;10.632;2023-04-24T00:35:08;93814.59;;;9.05;95.75
56330;BME280;42236;48.058;10.632;2023-04-24T00:37:54;93816.84;;;9.03;95.80
56330;BME280;42236;48.058;10.632;2023-04-24T00:40:40;93816.84;;;9.03;94.94
56330;BME280;42236;48.058;10.632;2023-04-24T00:43:25;93812.59;;;9.02;95.48
56330;BME280;42236;48.058;10.632;2023-04-24T00:46:12;93811.78;;;9.01;95.58
56330;BME280;42236;48.058;10.632;2023-04-24T00:48:58;93806.06;;;9.03;94.70
56330;BME280;42236;48.058;10.632;2023-04-24T00:51:44;93807.66;;;9.04;94.72
56330;BME280;42236;48.058;10.632;2023-04-24T00:54:30;93802.28;;;9.04;94.89
56330;BME280;42236;48.058;10.632;2023-04-24T00:57:17;93807.66;;;9.04;94.55
56330;BME280;42236;48.058;10.632;2023-04-24T01:00:05;93806.06;;;9.03;95.12
56330;BME280;42236;48.058;10.632;2023-04-24T01:02:51;93805.31;;;9.02;95.32
56330;BME280;42236;48.058;10.632;2023-04-24T01:05:37;93799.91;;;9.02;94.84
56330;BME280;42236;48.058;10.632;2023-04-24T01:08:28;93789.50;;;9.01;95.13
56330;BME280;42236;48.058;10.632;2023-04-24T01:11:14;93804.53;;;9.02;95.11
56330;BME280;42236;48.058;10.632;2023-04-24T01:14:00;93809.09;;;9.01;95.35
56330;BME280;42236;48.058;10.632;2023-04-24T01:16:46;93806.78;;;9.00;96.12
56330;BME280;42236;48.058;10.632;2023-04-24T01:19:32;93807.22;;;9.02;95.43
56330;BME280;42236;48.058;10.632;2023-04-24T01:22:17;93808.34;;;9.01;95.72
56330;BME280;42236;48.058;10.632;2023-04-24T01:25:03;93806.78;;;9.00;95.33
56330;BME280;42236;48.058;10.632;2023-04-24T01:27:49;93806.78;;;9.00;95.81
56330;BME280;42236;48.058;10.632;2023-04-24T01:30:35;93810.59;;;8.98;96.31
56330;BME280;42236;48.058;10.632;2023-04-24T01:33:21;93810.59;;;8.98;96.07
56330;BME280;42236;48.058;10.632;2023-04-24T01:36:08;93810.59;;;8.98;96.12
56330;BME280;42236;48.058;10.632;2023-04-24T01:38:55;93815.28;;;9.02;95.95
56330;BME280;42236;48.058;10.632;2023-04-24T01:41:41;93812.94;;;9.00;95.83
56330;BME280;42236;48.058;10.632;2023-04-24T01:44:27;93813.03;;;9.04;95.61
56330;BME280;42236;48.058;10.632;2023-04-24T01:47:13;93809.63;;;9.07;95.67
56330;BME280;42236;48.058;10.632;2023-04-24T01:49:59;93810.84;;;9.09;96.33
56330;BME280;42236;48.058;10.632;2023-04-24T01:52:44;93815.84;;;9.11;95.75
56330;BME280;42236;48.058;10.632;2023-04-24T01:55:31;93813.16;;;9.11;95.59
56330;BME280;42236;48.058;10.632;2023-04-24T01:58:16;93808.59;;;9.11;95.55
56330;BME280;42236;48.058;10.632;2023-04-24T02:01:02;93813.16;;;9.11;95.66
56330;BME280;42236;48.058;10.632;2023-04-24T02:03:48;93813.88;;;9.08;95.69
56330;BME280;42236;48.058;10.632;2023-04-24T02:06:34;93810.75;;;9.06;96.32
56330;BME280;42236;48.058;10.632;2023-04-24T02:09:20;93811.91;;;9.05;96.12
56330;BME280;42236;48.058;10.632;2023-04-24T02:12:05;93805.75;;;9.04;96.44
56330;BME280;42236;48.058;10.632;2023-04-24T02:14:51;93805.31;;;9.02;96.69
56330;BME280;42236;48.058;10.632;2023-04-24T02:17:37;93805.22;;;8.98;96.97
56330;BME280;42236;48.058;10.632;2023-04-24T02:20:23;93804.38;;;8.94;97.28
56330;BME280;42236;48.058;10.632;2023-04-24T02:23:09;93799.66;;;8.91;97.67
56330;BME280;42236;48.058;10.632;2023-04-24T02:25:55;93795.44;;;8.90;97.77
56330;BME280;42236;48.058;10.632;2023-04-24T02:28:41;93795.09;;;8.92;98.33
56330;BME280;42236;48.058;10.632;2023-04-24T02:31:26;93800.81;;;8.90;98.09
56330;BME280;42236;48.058;10.632;2023-04-24T02:34:12;93802.34;;;8.91;98.24
56330;BME280;42236;48.058;10.632;2023-04-24T02:36:58;93799.66;;;8.91;97.73
56330;BME280;42236;48.058;10.632;2023-04-24T02:39:43;93807.41;;;8.93;98.27
56330;BME280;42236;48.058;10.632;2023-04-24T02:42:29;93812.00;;;8.92;98.59
56330;BME280;42236;48.058;10.632;2023-04-24T02:45:15;93804.28;;;8.91;98.11
56330;BME280;42236;48.058;10.632;2023-04-24T02:48:01;93808.88;;;8.90;98.12
56330;BME280;42236;48.058;10.632;2023-04-24T02:50:47;93808.88;;;8.90;97.90
56330;BME280;42236;48.058;10.632;2023-04-24T02:53:33;93807.34;;;8.89;97.56
56330;BME280;42236;48.058;10.632;2023-04-24T02:56:18;93805.75;;;8.88;98.03
56330;BME280;42236;48.058;10.632;2023-04-24T02:59:04;93803.44;;;8.87;98.33
56330;BME280;42236;48.058;10.632;2023-04-24T03:01:50;93806.81;;;8.84;97.99
56330;BME280;42236;48.058;10.632;2023-04-24T03:04:35;93799.44;;;8.81;97.90
56330;BME280;42236;48.058;10.632;2023-04-24T03:07:21;93805.59;;;8.81;97.94
56330;BME280;42236;48.058;10.632;2023-04-24T03:10:09;93800.22;;;8.81;97.85
56330;BME280;42236;48.058;10.632;2023-04-24T03:12:55;93801.34;;;8.80;98.07
56330;BME280;42236;48.058;10.632;2023-04-24T03:15:40;93796.31;;;8.79;97.98
56330;BME280;42236;48.058;10.632;2023-04-24T03:18:26;93800.91;;;8.78;97.64
56330;BME280;42236;48.058;10.632;2023-04-24T03:21:12;93790.50;;;8.76;97.62
56330;BME280;42236;48.058;10.632;2023-04-24T03:23:57;93800.81;;;8.74;97.39
56330;BME280;42236;48.058;10.632;2023-04-24T03:26:43;93800.75;;;8.71;97.76
56330;BME280;42236;48.058;10.632;2023-04-24T03:29:28;93799.28;;;8.73;97.67
56330;BME280;42236;48.058;10.632;2023-04-24T03:32:14;93801.19;;;8.73;97.42
56330;BME280;42236;48.058;10.632;2023-04-24T03:35:00;93800.41;;;8.72;97.33
56330;BME280;42236;48.058;10.632;2023-04-24T03:37:46;93802.31;;;8.72;97.46
56330;BME280;42236;48.058;10.632;2023-04-24T03:40:31;93797.72;;;8.72;96.67
56330;BME280;42236;48.058;10.632;2023-04-24T03:43:18;93803.88;;;8.73;97.08
56330;BME280;42236;48.058;10.632;2023-04-24T03:46:05;93798.84;;;8.71;96.98
56330;BME280;42236;48.058;10.632;2023-04-24T03:48:50;93803.78;;;8.69;97.13
56330;BME280;42236;48.058;10.632;2023-04-24T03:51:36;93800.75;;;8.71;96.41
56330;BME280;42236;48.058;10.632;2023-04-24T03:54:22;93801.47;;;8.68;97.08
56330;BME280;42236;48.058;10.632;2023-04-24T03:57:08;93805.97;;;8.64;96.81
56330;BME280;42236;48.058;10.632;2023-04-24T03:59:53;93801.28;;;8.61;96.97
56330;BME280;42236;48.058;10.632;2023-04-24T04:02:39;93799.03;;;8.63;96.31
56330;BME280;42236;48.058;10.632;2023-04-24T04:05:24;93796.34;;;8.63;96.38
56330;BME280;42236;48.058;10.632;2023-04-24T04:08:10;93799.72;;;8.60;96.13
56330;BME280;42236;48.058;10.632;2023-04-24T04:10:56;93796.59;;;8.58;96.22
56330;BME280;42236;48.058;10.632;2023-04-24T04:13:42;93800.09;;;8.58;96.28
56330;BME280;42236;48.058;10.632;2023-04-24T04:16:27;93796.97;;;8.56;96.20
56330;BME280;42236;48.058;10.632;2023-04-24T04:19:13;93801.91;;;8.54;95.97
56330;BME280;42236;48.058;10.632;2023-04-24T04:21:58;93806.13;;;8.55;95.56
56330;BME280;42236;48.058;10.632;2023-04-24T04:24:44;93807.72;;;8.56;95.60
56330;BME280;42236;48.058;10.632;2023-04-24T04:27:31;93816.53;;;8.57;95.46
56330;BME280;42236;48.058;10.632;2023-04-24T04:30:18;93813.41;;;8.54;95.64
56330;BME280;42236;48.058;10.632;2023-04-24T04:33:03;93816.53;;;8.57;95.22
56330;BME280;42236;48.058;10.632;2023-04-24T04:35:49;93818.91;;;8.58;95.30
56330;BME280;42236;48.058;10.632;2023-04-24T04:38:35;93819.66;;;8.59;95.41
56330;BME280;42236;48.058;10.632;2023-04-24T04:41:20;93825.75;;;8.56;95.53
56330;BME280;42236;48.058;10.632;2023-04-24T04:44:06;93825.66;;;8.52;96.11
56330;BME280;42236;48.058;10.632;2023-04-24T04:46:53;93818.78;;;8.54;95.40
56330;BME280;42236;48.058;10.632;2023-04-24T04:49:41;93824.28;;;8.58;95.23
56330;BME280;42236;48.058;10.632;2023-04-24T04:52:28;93821.22;;;8.60;95.01
56330;BME280;42236;48.058;10.632;2023-04-24T04:55:14;93821.22;;;8.60;95.27
56330;BME280;42236;48.058;10.632;2023-04-24T04:58:00;93830.44;;;8.59;95.14
56330;BME280;42236;48.058;10.632;2023-04-24T05:00:46;93840.03;;;8.60;95.45
56330;BME280;42236;48.058;10.632;2023-04-24T05:03:31;93840.47;;;8.62;95.03
56330;BME280;42236;48.058;10.632;2023-04-24T05:06:17;93829.72;;;8.62;94.98
56330;BME280;42236;48.058;10.632;2023-04-24T05:09:03;93839.38;;;8.63;95.13
56330;BME280;42236;48.058;10.632;2023-04-24T05:11:49;93847.06;;;8.64;94.78
56330;BME280;42236;48.058;10.632;2023-04-24T05:14:35;93857.47;;;8.66;94.43
56330;BME280;42236;48.058;10.632;2023-04-24T05:17:20;93848.28;;;8.67;94.03
56330;BME280;42236;48.058;10.632;2023-04-24T05:20:06;93865.19;;;8.67;94.18
56330;BME280;42236;48.058;10.632;2023-04-24T05:22:52;93854.44;;;8.67;93.71
56330;BME280;42236;48.058;10.632;2023-04-24T05:25:38;93869.88;;;8.70;93.55
56330;BME280;42236;48.058;10.632;2023-04-24T05:28:25;93857.94;;;8.68;93.40
56330;BME280;42236;48.058;10.632;2023-04-24T05:31:13;93870.56;;;8.67;93.13
56330;BME280;42236;48.058;10.632;2023-04-24T05:33:59;93865.28;;;8.71;93.05
56330;BME280;42236;48.058;10.632;2023-04-24T05:36:45;93857.66;;;8.73;92.65
56330;BME280;42236;48.058;10.632;2023-04-24T05:39:30;93864.59;;;8.74;92.47
56330;BME280;42236;48.058;10.632;2023-04-24T05:42:16;93864.94;;;8.72;93.08
56330;BME280;42236;48.058;10.632;2023-04-24T05:45:02;93857.28;;;8.74;92.37
56330;BME280;42236;48.058;10.632;2023-04-24T05:47:48;93857.66;;;8.73;92.37
56330;BME280;42236;48.058;10.632;2023-04-24T05:50:33;93871.53;;;8.75;92.34
56330;BME280;42236;48.058;10.632;2023-04-24T05:53:19;93863.09;;;8.76;92.48
56330;BME280;42236;48.058;10.632;2023-04-24T05:56:05;93850.88;;;8.79;92.16
56330;BME280;42236;48.058;10.632;2023-04-24T05:58:51;93863.22;;;8.80;91.42
56330;BME280;42236;48.058;10.632;2023-04-24T06:01:36;93868.22;;;8.82;91.90
56330;BME280;42236;48.058;10.632;2023-04-24T06:04:22;93875.94;;;8.83;91.73
56330;BME280;42236;48.058;10.632;2023-04-24T06:07:08;93863.38;;;8.87;91.38
56330;BME280;42236;48.058;10.632;2023-04-24T06:09:53;93872.66;;;8.90;91.53
56330;BME280;42236;48.058;10.632;2023-04-24T06:12:39;93869.78;;;8.98;91.72
56330;BME280;42236;48.058;10.632;2023-04-24T06:15:25;93874.47;;;9.02;91.18
56330;BME280;42236;48.058;10.632;2023-04-24T06:18:11;93871.84;;;9.05;90.90
56330;BME280;42236;48.058;10.632;2023-04-24T06:20:58;93871.53;;;9.07;91.04
56330;BME280;42236;48.058;10.632;2023-04-24T06:23:43;93885.41;;;9.09;91.11
56330;BME280;42236;48.058;10.632;2023-04-24T06:26:29;93882.72;;;9.09;90.09
56330;BME280;42236;48.058;10.632;2023-04-24T06:29:15;93879.38;;;9.15;90.47
56330;BME280;42236;48.058;10.632;2023-04-24T06:32:01;93876.84;;;9.23;90.37
56330;BME280;42236;48.058;10.632;2023-04-24T06:34:46;93875.13;;;9.30;89.95
56330;BME280;42236;48.058;10.632;2023-04-24T06:37:32;93885.19;;;9.33;89.96
56330;BME280;42236;48.058;10.632;2023-04-24T06:40:17;93888.59;;;9.30;89.15
56330;BME280;42236;48.058;10.632;2023-04-24T06:43:06;93893.69;;;9.35;89.50
56330;BME280;42236;48.058;10.632;2023-04-24T06:45:52;93889.09;;;9.36;88.77
56330;BME280;42236;48.058;10.632;2023-04-24T06:48:39;93904.47;;;9.35;89.03
56330;BME280;42236;48.058;10.632;2023-04-24T06:51:25;93901.06;;;9.38;89.00
56330;BME280;42236;48.058;10.632;2023-04-24T06:54:11;93913.09;;;9.45;88.89
56330;BME280;42236;48.058;10.632;2023-04-24T06:56:57;93917.09;;;9.51;88.30
56330;BME280;42236;48.058;10.632;2023-04-24T06:59:42;93929.19;;;9.57;88.10
56330;BME280;42236;48.058;10.632;2023-04-24T07:02:28;93928.03;;;9.58;87.92
56330;BME280;42236;48.058;10.632;2023-04-24T07:05:14;93927.31;;;9.61;87.59
56330;BME280;42236;48.058;10.632;2023-04-24T07:08:01;93937.41;;;9.64;87.18
56330;BME280;42236;48.058;10.632;2023-04-24T07:10:48;93929.25;;;9.60;87.35
56330;BME280;42236;48.058;10.632;2023-04-24T07:13:34;93935.34;;;9.57;86.79
56330;BME280;42236;48.058;10.632;2023-04-24T07:16:21;93937.47;;;9.68;86.84
56330;BME280;42236;48.058;10.632;2023-04-24T07:19:06;93931.25;;;9.83;86.46
56330;BME280;42236;48.058;10.632;2023-04-24T07:21:52;93936.44;;;9.92;86.50
56330;BME280;42236;48.058;10.632;2023-04-24T07:24:38;93938.28;;;9.88;86.21
56330;BME280;42236;48.058;10.632;2023-04-24T07:27:26;93950.88;;;9.64;86.17
56330;BME280;42236;48.058;10.632;2023-04-24T07:30:11;93974.59;;;9.11;85.13
56330;BME280;42236;48.058;10.632;2023-04-24T07:32:57;93979.47;;;8.33;86.00
56330;BME280;42236;48.058;10.632;2023-04-24T07:35:43;93988.72;;;7.55;89.86
56330;BME280;42236;48.058;10.632;2023-04-24T07:38:29;93988.84;;;7.09;93.16
56330;BME280;42236;48.058;10.632;2023-04-24T07:41:15;93987.81;;;6.89;95.13
56330;BME280;42236;48.058;10.632;2023-04-24T07:44:01;93987.31;;;6.75;95.53
56330;BME280;42236;48.058;10.632;2023-04-24T07:46:46;93997.06;;;6.79;95.61
56330;BME280;42236;48.058;10.632;2023-04-24T07:49:32;93986.56;;;6.87;95.17
56330;BME280;42236;48.058;10.632;2023-04-24T07:52:20;93988.69;;;6.93;95.60
56330;BME280;42236;48.058;10.632;2023-04-24T07:55:06;93994.41;;;6.92;95.42
56330;BME280;42236;48.058;10.632;2023-04-24T07:57:52;93992.03;;;6.90;94.85
56330;BME280;42236;48.058;10.632;2023-04-24T08:00:38;93992.81;;;6.91;94.93
56330;BME280;42236;48.058;10.632;2023-04-24T08:03:23;93989.13;;;6.95;95.21
56330;BME280;42236;48.058;10.632;2023-04-24T08:06:10;93993.97;;;7.02;95.62
56330;BME280;42236;48.058;10.632;2023-04-24T08:08:56;93994.41;;;7.04;94.68
56330;BME280;42236;48.058;10.632;2023-04-24T08:11:43;93984.47;;;7.17;95.22
56330;BME280;42236;48.058;10.632;2023-04-24T08:14:29;93995.09;;;7.38;94.64
56330;BME280;42236;48.058;10.632;2023-04-24T08:17:16;94009.44;;;7.54;94.29
56330;BME280;42236;48.058;10.632;2023-04-24T08:20:05;94010.94;;;7.80;95.00
56330;BME280;42236;48.058;10.632;2023-04-24T08:22:51;94006.13;;;7.98;94.34
56330;BME280;42236;48.058;10.632;2023-04-24T08:25:37;94013.38;;;8.09;94.28
56330;BME280;42236;48.058;10.632;2023-04-24T08:28:23;94001.03;;;8.21;94.09
56330;BME280;42236;48.058;10.632;2023-04-24T08:31:08;93999.63;;;8.39;94.48
56330;BME280;42236;48.058;10.632;2023-04-24T08:33:54;93990.34;;;8.65;93.91
56330;BME280;42236;48.058;10.632;2023-04-24T08:36:39;93987.09;;;8.87;93.14
56330;BME280;42236;48.058;10.632;2023-04-24T08:39:26;93992.75;;;8.98;92.70
56330;BME280;42236;48.058;10.632;2023-04-24T08:42:12;93999.78;;;9.03;92.81
56330;BME280;42236;48.058;10.632;2023-04-24T08:44:58;93998.59;;;9.16;92.64
56330;BME280;42236;48.058;10.632;2023-04-24T08:47:44;93988.75;;;9.39;92.78
56330;BME280;42236;48.058;10.632;2023-04-24T08:50:31;93982.66;;;9.74;92.82
56330;BME280;42236;48.058;10.632;2023-04-24T08:53:18;93982.06;;;10.00;91.58
56330;BME280;42236;48.058;10.632;2023-04-24T08:56:04;93975.34;;;10.10;90.09
56330;BME280;42236;48.058;10.632;2023-04-24T08:58:51;93975.16;;;10.38;91.14
56330;BME280;42236;48.058;10.632;2023-04-24T09:01:37;93984.66;;;10.71;90.98
56330;BME280;42236;48.058;10.632;2023-04-24T09:04:25;93983.41;;;10.88;88.62
56330;BME280;42236;48.058;10.632;2023-04-24T09:07:12;93988.53;;;10.93;88.16
56330;BME280;42236;48.058;10.632;2023-04-24T09:09:59;93988.69;;;11.04;87.49
56330;BME280;42236;48.058;10.632;2023-04-24T09:12:44;93980.69;;;11.07;85.34
56330;BME280;42236;48.058;10.632;2023-04-24T09:15:31;93980.38;;;11.13;84.79
56330;BME280;42236;48.058;10.632;2023-04-24T09:18:17;93980.72;;;11.11;83.37
56330;BME280;42236;48.058;10.632;2023-04-24T09:21:06;93983.50;;;11.15;81.93
56330;BME280;42236;48.058;10.632;2023-04-24T09:24:00;93970.31;;;11.09;81.57
56330;BME280;42236;48.058;10.632;2023-04-24T09:26:48;93982.19;;;11.05;82.05
56330;BME280;42236;48.058;10.632;2023-04-24T09:29:34;93982.78;;;10.95;81.51
56330;BME280;42236;48.058;10.632;2023-04-24T09:32:21;93974.59;;;10.91;80.72
56330;BME280;42236;48.058;10.632;2023-04-24T09:35:10;93988.22;;;10.98;81.40
56330;BME280;42236;48.058;10.632;2023-04-24T09:37:57;93997.50;;;10.39;76.95
56330;BME280;42236;48.058;10.632;2023-04-24T09:40:43;94031.53;;;8.53;82.03
56330;BME280;42236;48.058;10.632;2023-04-24T09:43:29;94042.50;;;7.34;88.23
56330;BME280;42236;48.058;10.632;2023-04-24T09:46:18;94049.75;;;6.75;92.65
56330;BME280;42236;48.058;10.632;2023-04-24T09:49:15;94047.66;;;6.48;95.80
56330;BME280;42236;48.058;10.632;2023-04-24T09:52:09;94045.88;;;6.52;98.57
56330;BME280;42236;48.058;10.632;2023-04-24T09:54:55;94043.91;;;6.61;98.07
56330;BME280;42236;48.058;10.632;2023-04-24T09:57:51;94032.44;;;6.73;98.20
56330;BME280;42236;48.058;10.632;2023-04-24T10:00:38;94019.75;;;6.94;97.07
56330;BME280;42236;48.058;10.632;2023-04-24T10:03:24;94033.34;;;7.22;96.47
56330;BME280;42236;48.058;10.632;2023-04-24T10:06:13;94018.56;;;7.53;95.65
56330;BME280;42236;48.058;10.632;2023-04-24T10:08:59;94017.78;;;7.77;96.11
56330;BME280;42236;48.058;10.632;2023-04-24T10:11:46;94019.41;;;8.06;96.10
56330;BME280;42236;48.058;10.632;2023-04-24T10:14:32;94017.78;;;8.42;96.91
56330;BME280;42236;48.058;10.632;2023-04-24T10:17:18;94012.47;;;8.74;96.17
56330;BME280;42236;48.058;10.632;2023-04-24T10:20:06;94006.75;;;9.04;95.90
56330;BME280;42236;48.058;10.632;2023-04-24T10:22:53;94016.19;;;9.29;94.82
56330;BME280;42236;48.058;10.632;2023-04-24T10:25:39;94018.97;;;9.49;94.63
56330;BME280;42236;48.058;10.632;2023-04-24T10:28:26;94018.50;;;9.78;94.21
56330;BME280;42236;48.058;10.632;2023-04-24T10:31:14;94016.09;;;10.09;94.88
56330;BME280;42236;48.058;10.632;2023-04-24T10:34:01;94017.19;;;10.23;91.79
56330;BME280;42236;48.058;10.632;2023-04-24T10:36:53;94014.34;;;10.52;93.07
56330;BME280;42236;48.058;10.632;2023-04-24T10:39:41;94012.84;;;10.74;91.37
56330;BME280;42236;48.058;10.632;2023-04-24T10:42:27;94009.97;;;10.86;89.38
56330;BME280;42236;48.058;10.632;2023-04-24T10:45:23;94012.09;;;10.77;89.32
56330;BME280;42236;48.058;10.632;2023-04-24T10:48:09;94007.78;;;10.72;87.37
56330;BME280;42236;48.058;10.632;2023-04-24T10:50:59;94013.81;;;10.46;88.02
56330;BME280;42236;48.058;10.632;2023-04-24T10:53:44;94012.56;;;10.24;89.44
56330;BME280;42236;48.058;10.632;2023-04-24T10:56:32;94011.22;;;10.14;89.45
56330;BME280;42236;48.058;10.632;2023-04-24T10:59:29;94022.13;;;10.02;90.62
56330;BME280;42236;48.058;10.632;2023-04-24T11:02:35;94012.63;;;10.08;90.21
56330;BME280;42236;48.058;10.632;2023-04-24T11:05:22;94019.06;;;10.39;86.20
56330;BME280;42236;48.058;10.632;2023-04-24T11:08:23;94025.47;;;10.50;85.11
56330;BME280;42236;48.058;10.632;2023-04-24T11:11:14;94033.06;;;10.64;81.23
56330;BME280;42236;48.058;10.632;2023-04-24T11:16:52;94011.81;;;10.82;77.86
56330;BME280;42236;48.058;10.632;2023-04-24T11:19:39;94025.88;;;10.91;77.43
56330;BME280;42236;48.058;10.632;2023-04-24T11:22:25;94022.38;;;11.10;78.40
56330;BME280;42236;48.058;10.632;2023-04-24T11:25:17;94017.38;;;11.35;76.89
56330;BME280;42236;48.058;10.632;2023-04-24T11:28:04;94003.06;;;11.31;71.03
56330;BME280;42236;48.058;10.632;2023-04-24T11:30:50;94018.59;;;11.38;73.96
56330;BME280;42236;48.058;10.632;2023-04-24T11:33:36;94023.69;;;11.20;69.71
56330;BME280;42236;48.058;10.632;2023-04-24T11:36:22;94019.72;;;11.14;70.38
56330;BME280;42236;48.058;10.632;2023-04-24T11:39:08;94019.84;;;10.98;67.78
56330;BME280;42236;48.058;10.632;2023-04-24T11:42:02;94016.09;;;10.83;64.98
56330;BME280;42236;48.058;10.632;2023-04-24T11:44:47;94024.41;;;10.74;67.26
56330;BME280;42236;48.058;10.632;2023-04-24T11:47:41;94022.28;;;10.64;70.36
56330;BME280;42236;48.058;10.632;2023-04-24T11:50:27;94034.28;;;10.66;67.48
56330;BME280;42236;48.058;10.632;2023-04-24T11:53:19;94035.66;;;10.80;68.65
56330;BME280;42236;48.058;10.632;2023-04-24T11:56:06;94027.06;;;10.94;66.68
56330;BME280;42236;48.058;10.632;2023-04-24T11:58:52;94024.22;;;11.06;63.70
56330;BME280;42236;48.058;10.632;2023-04-24T12:01:46;94039.22;;;11.03;62.42
56330;BME280;42236;48.058;10.632;2023-04-24T12:04:41;94038.91;;;11.08;64.09
56330;BME280;42236;48.058;10.632;2023-04-24T12:07:27;94038.34;;;11.19;63.18
56330;BME280;42236;48.058;10.632;2023-04-24T12:10:13;94047.50;;;11.14;60.45
56330;BME280;42236;48.058;10.632;2023-04-24T12:13:00;94045.16;;;11.13;61.09
56330;BME280;42236;48.058;10.632;2023-04-24T12:15:45;94040.66;;;10.97;59.54
56330;BME280;42236;48.058;10.632;2023-04-24T12:18:31;94041.84;;;11.00;59.48
56330;BME280;42236;48.058;10.632;2023-04-24T12:21:22;94048.72;;;11.17;59.71
56330;BME280;42236;48.058;10.632;2023-04-24T12:24:07;94046.97;;;11.28;58.52
56330;BME280;42236;48.058;10.632;2023-04-24T12:26:53;94042.53;;;11.39;59.03
56330;BME280;42236;48.058;10.632;2023-04-24T12:29:56;94051.44;;;11.63;59.88
56330;BME280;42236;48.058;10.632;2023-04-24T12:32:44;94044.09;;;11.86;60.56
56330;BME280;42236;48.058;10.632;2023-04-24T12:35:32;94055.13;;;12.01;60.08
56330;BME280;42236;48.058;10.632;2023-04-24T12:38:22;94050.41;;;11.94;58.78
56330;BME280;42236;48.058;10.632;2023-04-24T12:41:11;94051.78;;;11.84;58.60
56330;BME280;42236;48.058;10.632;2023-04-24T12:43:57;94048.91;;;11.97;59.33
56330;BME280;42236;48.058;10.632;2023-04-24T12:46:43;94047.31;;;12.22;58.00
56330;BME280;42236;48.058;10.632;2023-04-24T12:49:33;94050.22;;;12.36;58.09
56330;BME280;42236;48.058;10.632;2023-04-24T12:52:19;94053.38;;;12.12;56.43
56330;BME280;42236;48.058;10.632;2023-04-24T12:55:11;94054.63;;;11.91;56.22
56330;BME280;42236;48.058;10.632;2023-04-24T12:57:57;94058.31;;;11.83;58.25
56330;BME280;42236;48.058;10.632;2023-04-24T13:00:43;94061.47;;;12.12;58.44
56330;BME280;42236;48.058;10.632;2023-04-24T13:03:31;94078.16;;;12.17;56.98
56330;BME280;42236;48.058;10.632;2023-04-24T13:06:19;94064.50;;;12.07;56.26
56330;BME280;42236;48.058;10.632;2023-04-24T13:09:05;94060.38;;;11.90;55.91
56330;BME280;42236;48.058;10.632;2023-04-24T13:11:50;94068.56;;;11.74;56.30
56330;BME280;42236;48.058;10.632;2023-04-24T13:14:36;94072.56;;;11.34;54.87
56330;BME280;42236;48.058;10.632;2023-04-24T13:17:22;94071.53;;;11.19;55.54
56330;BME280;42236;48.058;10.632;2023-04-24T13:20:08;94071.69;;;11.30;56.82
56330;BME280;42236;48.058;10.632;2023-04-24T13:22:53;94071.22;;;11.47;55.71
56330;BME280;42236;48.058;10.632;2023-04-24T13:25:39;94066.13;;;11.65;56.32
56330;BME280;42236;48.058;10.632;2023-04-24T13:28:25;94068.00;;;11.84;55.25
56330;BME280;42236;48.058;10.632;2023-04-24T13:31:10;94074.34;;;11.95;56.14
56330;BME280;42236;48.058;10.632;2023-04-24T13:33:56;94075.44;;;11.91;55.50
56330;BME280;42236;48.058;10.632;2023-04-24T13:36:42;94084.50;;;11.56;54.06
56330;BME280;42236;48.058;10.632;2023-04-24T13:39:27;94073.44;;;11.42;56.64
56330;BME280;42236;48.058;10.632;2023-04-24T13:42:13;94078.25;;;11.52;58.19
56330;BME280;42236;48.058;10.632;2023-04-24T13:44:59;94070.53;;;11.50;58.35
56330;BME280;42236;48.058;10.632;2023-04-24T13:47:45;94066.78;;;11.59;59.12
56330;BME280;42236;48.058;10.632;2023-04-24T13:50:31;94071.91;;;11.64;57.71
56330;BME280;42236;48.058;10.632;2023-04-24T13:53:16;94053.09;;;11.71;57.37
56330;BME280;42236;48.058;10.632;2023-04-24T13:56:02;94071.72;;;11.99;57.78
56330;BME280;42236;48.058;10.632;2023-04-24T13:58:48;94057.44;;;11.99;55.25
56330;BME280;42236;48.058;10.632;2023-04-24T14:01:34;94061.47;;;12.12;56.39
56330;BME280;42236;48.058;10.632;2023-04-24T14:04:20;94062.25;;;12.12;53.60
56330;BME280;42236;48.058;10.632;2023-04-24T14:07:06;94057.38;;;12.22;55.02
56330;BME280;42236;48.058;10.632;2023-04-24T14:09:52;94058.56;;;12.24;53.86
56330;BME280;42236;48.058;10.632;2023-04-24T14:12:46;94062.47;;;12.27;54.45
56330;BME280;42236;48.058;10.632;2023-04-24T14:15:32;94048.59;;;12.28;52.75
56330;BME280;42236;48.058;10.632;2023-04-24T14:18:17;94064.38;;;12.26;52.89
56330;BME280;42236;48.058;10.632;2023-04-24T14:21:04;94068.16;;;12.18;51.10
56330;BME280;42236;48.058;10.632;2023-04-24T14:23:50;94064.44;;;12.03;51.47
56330;BME280;42236;48.058;10.632;2023-04-24T14:26:36;94065.94;;;12.01;51.49
56330;BME280;42236;48.058;10.632;2023-04-24T14:29:22;94062.50;;;11.81;51.78
56330;BME280;42236;48.058;10.632;2023-04-24T14:32:07;94077.00;;;11.69;52.12
56330;BME280;42236;48.058;10.632;2023-04-24T14:34:54;94070.78;;;11.65;52.90
56330;BME280;42236;48.058;10.632;2023-04-24T14:37:40;94067.28;;;11.87;53.17
56330;BME280;42236;48.058;10.632;2023-04-24T14:40:28;94071.00;;;11.79;52.25
56330;BME280;42236;48.058;10.632;2023-04-24T14:43:14;94076.19;;;11.65;53.13